sensor_id;sensor_type;location;lat;lon;timestamp;P1;durP1;ratioP1;P2;durP2;ratioP2
69910;SDS011;63555;49.920;17.868;2023-04-01T00:02:29;4.17;;;1.00;;
69910;SDS011;63555;49.920;17.868;2023-04-01T00:07:30;2.93;;;1.03;;
69910;SDS011;63555;49.920;17.868;2023-04-01T00:12:30;6.13;;;1.13;;
69910;SDS011;63555;49.920;17.868;2023-04-01T00:17:31;3.63;;;1.00;;
69910;SDS011;63555;49.920;17.868;2023-04-01T00:22:31;8.63;;;1.60;;
69910;SDS011;63555;49.920;17.868;2023-04-01T00:27:32;3.00;;;1.20;;
69910;SDS011;63555;49.920;17.868;2023-04-01T00:32:33;3.93;;;1.40;;
69910;SDS011;63555;49.920;17.868;2023-04-01T00:37:36;3.97;;;1.33;;
69910;SDS011;63555;49.920;17.868;2023-04-01T00:42:37;3.97;;;1.50;;
69910;SDS011;63555;49.920;17.868;2023-04-01T00:47:38;4.13;;;1.33;;
69910;SDS011;63555;49.920;17.868;2023-04-01T00:52:38;4.17;;;1.00;;
69910;SDS011;63555;49.920;17.868;2023-04-01T00:57:38;3.80;;;0.90;;
69910;SDS011;63555;49.920;17.868;2023-04-01T01:02:41;5.88;;;0.98;;
69910;SDS011;63555;49.920;17.868;2023-04-01T01:24:08;6.97;;;1.17;;
69910;SDS011;63555;49.920;17.868;2023-04-01T01:40:04;5.25;;;1.60;;
69910;SDS011;63555;49.920;17.868;2023-04-01T01:45:07;4.97;;;1.40;;
69910;SDS011;63555;49.920;17.868;2023-04-01T01:50:10;3.20;;;1.00;;
69910;SDS011;63555;49.920;17.868;2023-04-01T01:55:33;3.75;;;1.35;;
69910;SDS011;63555;49.920;17.868;2023-04-01T02:00:36;3.47;;;0.90;;
69910;SDS011;63555;49.920;17.868;2023-04-01T02:05:38;4.18;;;1.17;;
69910;SDS011;63555;49.920;17.868;2023-04-01T02:10:40;4.53;;;1.23;;
69910;SDS011;63555;49.920;17.868;2023-04-01T02:15:46;2.80;;;1.13;;
69910;SDS011;63555;49.920;17.868;2023-04-01T02:20:50;6.70;;;0.98;;
69910;SDS011;63555;49.920;17.868;2023-04-01T02:25:51;4.80;;;1.17;;
69910;SDS011;63555;49.920;17.868;2023-04-01T02:30:53;2.60;;;0.90;;
69910;SDS011;63555;49.920;17.868;2023-04-01T02:35:53;5.87;;;1.00;;
69910;SDS011;63555;49.920;17.868;2023-04-01T02:40:58;5.53;;;1.10;;
69910;SDS011;63555;49.920;17.868;2023-04-01T02:46:00;3.95;;;0.98;;
69910;SDS011;63555;49.920;17.868;2023-04-01T02:51:01;3.30;;;0.90;;
69910;SDS011;63555;49.920;17.868;2023-04-01T02:56:02;4.90;;;1.20;;
69910;SDS011;63555;49.920;17.868;2023-04-01T03:01:02;5.03;;;1.15;;
69910;SDS011;63555;49.920;17.868;2023-04-01T03:06:06;4.03;;;1.43;;
69910;SDS011;63555;49.920;17.868;2023-04-01T03:11:08;4.37;;;1.80;;
69910;SDS011;63555;49.920;17.868;2023-04-01T03:16:09;5.80;;;1.83;;
69910;SDS011;63555;49.920;17.868;2023-04-01T03:21:14;6.10;;;1.47;;
69910;SDS011;63555;49.920;17.868;2023-04-01T03:26:21;3.42;;;1.38;;
69910;SDS011;63555;49.920;17.868;2023-04-01T03:31:23;12.00;;;2.00;;
69910;SDS011;63555;49.920;17.868;2023-04-01T03:36:23;4.63;;;1.70;;
69910;SDS011;63555;49.920;17.868;2023-04-01T03:41:24;5.17;;;1.87;;
69910;SDS011;63555;49.920;17.868;2023-04-01T03:46:25;5.43;;;2.00;;
69910;SDS011;63555;49.920;17.868;2023-04-01T03:51:25;4.33;;;1.60;;
69910;SDS011;63555;49.920;17.868;2023-04-01T03:56:26;5.57;;;1.60;;
69910;SDS011;63555;49.920;17.868;2023-04-01T04:01:26;4.53;;;1.60;;
69910;SDS011;63555;49.920;17.868;2023-04-01T04:06:27;3.10;;;1.33;;
69910;SDS011;63555;49.920;17.868;2023-04-01T04:11:27;4.13;;;1.30;;
69910;SDS011;63555;49.920;17.868;2023-04-01T04:16:30;5.25;;;1.38;;
69910;SDS011;63555;49.920;17.868;2023-04-01T04:21:30;5.77;;;1.30;;
69910;SDS011;63555;49.920;17.868;2023-04-01T04:26:31;4.88;;;1.05;;
69910;SDS011;63555;49.920;17.868;2023-04-01T04:31:32;3.47;;;1.10;;
69910;SDS011;63555;49.920;17.868;2023-04-01T04:36:32;4.90;;;1.20;;
69910;SDS011;63555;49.920;17.868;2023-04-01T04:41:32;4.50;;;1.40;;
69910;SDS011;63555;49.920;17.868;2023-04-01T04:46:33;3.30;;;1.27;;
69910;SDS011;63555;49.920;17.868;2023-04-01T04:51:33;3.03;;;1.20;;
69910;SDS011;63555;49.920;17.868;2023-04-01T04:56:35;5.60;;;0.90;;
69910;SDS011;63555;49.920;17.868;2023-04-01T05:01:36;4.70;;;1.40;;
69910;SDS011;63555;49.920;17.868;2023-04-01T05:06:36;3.47;;;1.20;;
69910;SDS011;63555;49.920;17.868;2023-04-01T05:11:36;4.20;;;1.50;;
69910;SDS011;63555;49.920;17.868;2023-04-01T05:16:37;4.03;;;1.50;;
69910;SDS011;63555;49.920;17.868;2023-04-01T05:21:37;2.93;;;1.20;;
69910;SDS011;63555;49.920;17.868;2023-04-01T05:26:37;3.70;;;1.00;;
69910;SDS011;63555;49.920;17.868;2023-04-01T05:31:38;3.27;;;1.20;;
69910;SDS011;63555;49.920;17.868;2023-04-01T05:36:38;3.83;;;1.10;;
69910;SDS011;63555;49.920;17.868;2023-04-01T05:41:38;3.07;;;1.13;;
69910;SDS011;63555;49.920;17.868;2023-04-01T05:46:40;3.88;;;1.83;;
69910;SDS011;63555;49.920;17.868;2023-04-01T05:51:41;3.85;;;1.00;;
69910;SDS011;63555;49.920;17.868;2023-04-01T05:56:41;4.40;;;1.17;;
69910;SDS011;63555;49.920;17.868;2023-04-01T06:01:42;3.07;;;1.17;;
69910;SDS011;63555;49.920;17.868;2023-04-01T06:06:42;2.50;;;0.90;;
69910;SDS011;63555;49.920;17.868;2023-04-01T06:12:08;2.60;;;1.05;;
69910;SDS011;63555;49.920;17.868;2023-04-01T06:17:19;3.33;;;0.90;;
69910;SDS011;63555;49.920;17.868;2023-04-01T06:33:46;3.95;;;0.90;;
69910;SDS011;63555;49.920;17.868;2023-04-01T06:49:53;2.75;;;0.60;;
69910;SDS011;63555;49.920;17.868;2023-04-01T07:00:18;2.25;;;0.80;;
69910;SDS011;63555;49.920;17.868;2023-04-01T07:05:27;3.45;;;0.70;;
69910;SDS011;63555;49.920;17.868;2023-04-01T07:10:33;2.37;;;0.80;;
69910;SDS011;63555;49.920;17.868;2023-04-01T07:15:43;2.25;;;0.80;;
69910;SDS011;63555;49.920;17.868;2023-04-01T07:20:51;3.77;;;1.47;;
69910;SDS011;63555;49.920;17.868;2023-04-01T07:25:53;2.53;;;0.75;;
69910;SDS011;63555;49.920;17.868;2023-04-01T08:23:49;1.50;;;0.40;;
69910;SDS011;63555;49.920;17.868;2023-04-01T08:29:00;3.25;;;0.60;;
69910;SDS011;63555;49.920;17.868;2023-04-01T08:34:04;2.92;;;1.13;;
69910;SDS011;63555;49.920;17.868;2023-04-01T08:39:13;3.00;;;1.80;;
69910;SDS011;63555;49.920;17.868;2023-04-01T08:55:30;2.35;;;0.60;;
69910;SDS011;63555;49.920;17.868;2023-04-01T09:00:52;1.83;;;0.70;;
69910;SDS011;63555;49.920;17.868;2023-04-01T09:16:50;3.60;;;0.77;;
69910;SDS011;63555;49.920;17.868;2023-04-01T09:32:26;1.93;;;0.67;;
69910;SDS011;63555;49.920;17.868;2023-04-01T09:48:25;1.45;;;0.45;;
69910;SDS011;63555;49.920;17.868;2023-04-01T10:36:47;2.60;;;0.80;;
69910;SDS011;63555;49.920;17.868;2023-04-01T10:53:08;2.10;;;0.63;;
69910;SDS011;63555;49.920;17.868;2023-04-01T11:14:26;2.13;;;0.60;;
69910;SDS011;63555;49.920;17.868;2023-04-01T11:30:23;1.70;;;0.50;;
69910;SDS011;63555;49.920;17.868;2023-04-01T11:35:38;1.95;;;0.60;;
69910;SDS011;63555;49.920;17.868;2023-04-01T11:46:17;2.87;;;0.70;;
69910;SDS011;63555;49.920;17.868;2023-04-01T12:23:13;2.80;;;0.60;;
69910;SDS011;63555;49.920;17.868;2023-04-01T13:05:50;4.18;;;1.25;;
69910;SDS011;63555;49.920;17.868;2023-04-01T13:11:07;2.50;;;0.88;;
69910;SDS011;63555;49.920;17.868;2023-04-01T13:31:47;2.88;;;1.20;;
69910;SDS011;63555;49.920;17.868;2023-04-01T13:47:27;2.72;;;1.00;;
69910;SDS011;63555;49.920;17.868;2023-04-01T13:58:20;2.63;;;0.90;;
69910;SDS011;63555;49.920;17.868;2023-04-01T14:08:59;2.45;;;0.90;;
69910;SDS011;63555;49.920;17.868;2023-04-01T14:30:35;2.22;;;0.80;;
69910;SDS011;63555;49.920;17.868;2023-04-01T14:35:55;3.05;;;1.08;;
69910;SDS011;63555;49.920;17.868;2023-04-01T14:51:56;4.60;;;1.88;;
69910;SDS011;63555;49.920;17.868;2023-04-01T14:57:12;2.42;;;0.98;;
69910;SDS011;63555;49.920;17.868;2023-04-01T15:18:12;3.92;;;1.00;;
69910;SDS011;63555;49.920;17.868;2023-04-01T16:00:49;5.68;;;1.70;;
69910;SDS011;63555;49.920;17.868;2023-04-01T16:22:13;2.38;;;0.90;;
69910;SDS011;63555;49.920;17.868;2023-04-01T16:27:42;2.92;;;0.95;;
69910;SDS011;63555;49.920;17.868;2023-04-01T16:32:50;5.77;;;1.87;;
69910;SDS011;63555;49.920;17.868;2023-04-01T16:38:15;4.72;;;2.00;;
69910;SDS011;63555;49.920;17.868;2023-04-01T16:43:30;3.28;;;0.93;;
69910;SDS011;63555;49.920;17.868;2023-04-01T16:48:45;2.88;;;0.80;;
69910;SDS011;63555;49.920;17.868;2023-04-01T16:54:02;2.10;;;0.60;;
69910;SDS011;63555;49.920;17.868;2023-04-01T17:20:03;1.90;;;0.60;;
69910;SDS011;63555;49.920;17.868;2023-04-01T17:46:58;4.65;;;1.65;;
69910;SDS011;63555;49.920;17.868;2023-04-01T18:02:32;3.70;;;1.20;;
69910;SDS011;63555;49.920;17.868;2023-04-01T18:07:57;4.72;;;1.00;;
69910;SDS011;63555;49.920;17.868;2023-04-01T18:18:48;2.73;;;0.90;;
69910;SDS011;63555;49.920;17.868;2023-04-01T18:23:59;3.13;;;1.00;;
69910;SDS011;63555;49.920;17.868;2023-04-01T18:29:32;4.32;;;1.50;;
69910;SDS011;63555;49.920;17.868;2023-04-01T18:34:54;4.97;;;2.78;;
69910;SDS011;63555;49.920;17.868;2023-04-01T18:40:48;4.07;;;1.98;;
69910;SDS011;63555;49.920;17.868;2023-04-01T18:45:37;3.70;;;1.70;;
69910;SDS011;63555;49.920;17.868;2023-04-01T18:50:55;3.08;;;0.88;;
69910;SDS011;63555;49.920;17.868;2023-04-01T18:56:11;2.20;;;0.98;;
69910;SDS011;63555;49.920;17.868;2023-04-01T19:01:28;9.40;;;3.17;;
69910;SDS011;63555;49.920;17.868;2023-04-01T19:06:47;8.77;;;3.35;;
69910;SDS011;63555;49.920;17.868;2023-04-01T19:17:22;5.28;;;2.20;;
69910;SDS011;63555;49.920;17.868;2023-04-01T19:27:51;5.70;;;2.20;;
69910;SDS011;63555;49.920;17.868;2023-04-01T19:33:01;4.40;;;2.00;;
69910;SDS011;63555;49.920;17.868;2023-04-01T19:38:26;5.20;;;2.33;;
69910;SDS011;63555;49.920;17.868;2023-04-01T19:58:54;5.72;;;2.92;;
69910;SDS011;63555;49.920;17.868;2023-04-01T20:04:13;6.32;;;2.50;;
69910;SDS011;63555;49.920;17.868;2023-04-01T20:09:35;8.03;;;3.17;;
69910;SDS011;63555;49.920;17.868;2023-04-01T20:14:42;10.32;;;3.90;;
69910;SDS011;63555;49.920;17.868;2023-04-01T20:19:55;12.00;;;5.70;;
69910;SDS011;63555;49.920;17.868;2023-04-01T20:25:04;16.38;;;7.05;;
69910;SDS011;63555;49.920;17.868;2023-04-01T20:47:24;9.93;;;4.10;;
69910;SDS011;63555;49.920;17.868;2023-04-01T21:35:51;9.73;;;4.63;;
69910;SDS011;63555;49.920;17.868;2023-04-01T22:14:15;14.23;;;6.60;;
69910;SDS011;63555;49.920;17.868;2023-04-01T22:25:10;15.33;;;7.77;;
69910;SDS011;63555;49.920;17.868;2023-04-01T22:30:32;17.73;;;7.03;;
69910;SDS011;63555;49.920;17.868;2023-04-01T22:35:48;17.10;;;8.53;;
69910;SDS011;63555;49.920;17.868;2023-04-01T22:40:57;18.27;;;8.15;;
69910;SDS011;63555;49.920;17.868;2023-04-01T22:51:18;16.20;;;8.73;;
69910;SDS011;63555;49.920;17.868;2023-04-01T22:56:27;17.83;;;8.50;;
69910;SDS011;63555;49.920;17.868;2023-04-01T23:01:34;16.10;;;8.43;;
69910;SDS011;63555;49.920;17.868;2023-04-01T23:06:43;16.70;;;8.57;;
69910;SDS011;63555;49.920;17.868;2023-04-01T23:11:50;19.48;;;8.43;;
69910;SDS011;63555;49.920;17.868;2023-04-01T23:17:36;19.27;;;8.87;;
69910;SDS011;63555;49.920;17.868;2023-04-01T23:22:35;19.88;;;9.45;;
69910;SDS011;63555;49.920;17.868;2023-04-01T23:38:24;19.25;;;8.88;;
69910;SDS011;63555;49.920;17.868;2023-04-01T23:43:27;22.67;;;8.93;;
69910;SDS011;63555;49.920;17.868;2023-04-01T23:48:37;16.13;;;8.43;;
69910;SDS011;63555;49.920;17.868;2023-04-01T23:53:46;15.90;;;7.70;;
69910;SDS011;63555;49.920;17.868;2023-04-01T23:58:55;16.90;;;7.93;;
